Woody Point, Canada
Current Conditions -  °F | °C
As of 7:48 AM on Saturday 25 Oct 2014 (Local Time) from CYDF Reporting Station
Rain Showers Rain Showers  
Wind Chill: 30°   Ceiling: 1800
Heat Index: 39°   Visibility: 8mi
Dew Point: 37°   Wind: 16mph
Humidity: 93%   Direction: 50°NE
Pressure: 29.61"   Gusts: 22mph
Location:  49.5°N, 57.93°W
Report Text: CYDF 250948Z 05014G19KT 8SM -SHRA FEW010 OVC018 04/03 A2961 RMK SF2SC6 SLP028
Loading
Personal Weather Stations






























Interactive Weather Map
Tropical Storm Tracking
New forecast layout! Learn more

10-Day Weather Forecast

Advertisements
Track Severe Weather on mobile